sensor_id;sensor_type;location;lat;lon;timestamp;P1;durP1;ratioP1;P2;durP2;ratioP2
24631;SDS011;59977;48.782;9.190;2024-03-22T00:01:39;32.83;;;13.65;;
24631;SDS011;59977;48.782;9.190;2024-03-22T00:04:05;20.67;;;12.90;;
24631;SDS011;59977;48.782;9.190;2024-03-22T00:06:31;25.58;;;13.93;;
24631;SDS011;59977;48.782;9.190;2024-03-22T00:08:56;20.45;;;12.52;;
24631;SDS011;59977;48.782;9.190;2024-03-22T00:11:22;22.60;;;13.82;;
24631;SDS011;59977;48.782;9.190;2024-03-22T00:13:47;26.20;;;13.77;;
24631;SDS011;59977;48.782;9.190;2024-03-22T00:16:13;25.63;;;13.30;;
24631;SDS011;59977;48.782;9.190;2024-03-22T00:18:38;16.30;;;12.45;;
24631;SDS011;59977;48.782;9.190;2024-03-22T00:21:04;19.52;;;12.43;;
24631;SDS011;59977;48.782;9.190;2024-03-22T00:23:30;24.77;;;12.77;;
24631;SDS011;59977;48.782;9.190;2024-03-22T00:25:55;22.50;;;11.48;;
24631;SDS011;59977;48.782;9.190;2024-03-22T00:28:21;21.20;;;11.88;;
24631;SDS011;59977;48.782;9.190;2024-03-22T00:30:46;21.10;;;12.13;;
24631;SDS011;59977;48.782;9.190;2024-03-22T00:33:12;20.67;;;12.15;;
24631;SDS011;59977;48.782;9.190;2024-03-22T00:35:38;20.63;;;11.93;;
24631;SDS011;59977;48.782;9.190;2024-03-22T00:38:03;21.70;;;11.18;;
24631;SDS011;59977;48.782;9.190;2024-03-22T00:40:29;19.10;;;11.13;;
24631;SDS011;59977;48.782;9.190;2024-03-22T00:42:54;19.00;;;12.13;;
24631;SDS011;59977;48.782;9.190;2024-03-22T00:45:20;26.17;;;11.52;;
24631;SDS011;59977;48.782;9.190;2024-03-22T00:47:45;22.80;;;11.38;;
24631;SDS011;59977;48.782;9.190;2024-03-22T00:50:11;19.52;;;11.52;;
24631;SDS011;59977;48.782;9.190;2024-03-22T00:52:37;24.48;;;11.50;;
24631;SDS011;59977;48.782;9.190;2024-03-22T00:55:03;18.02;;;11.65;;
24631;SDS011;59977;48.782;9.190;2024-03-22T00:57:30;22.58;;;11.65;;
24631;SDS011;59977;48.782;9.190;2024-03-22T00:59:56;18.45;;;10.68;;
24631;SDS011;59977;48.782;9.190;2024-03-22T01:02:21;18.10;;;11.18;;
24631;SDS011;59977;48.782;9.190;2024-03-22T01:04:47;21.95;;;10.77;;
24631;SDS011;59977;48.782;9.190;2024-03-22T01:07:13;22.10;;;11.18;;
24631;SDS011;59977;48.782;9.190;2024-03-22T01:09:39;15.68;;;10.05;;
24631;SDS011;59977;48.782;9.190;2024-03-22T01:12:04;21.35;;;11.18;;
24631;SDS011;59977;48.782;9.190;2024-03-22T01:14:30;25.50;;;11.27;;
24631;SDS011;59977;48.782;9.190;2024-03-22T01:16:56;18.50;;;11.15;;
24631;SDS011;59977;48.782;9.190;2024-03-22T01:19:22;22.30;;;10.52;;
24631;SDS011;59977;48.782;9.190;2024-03-22T01:21:48;16.75;;;10.05;;
24631;SDS011;59977;48.782;9.190;2024-03-22T01:24:14;16.67;;;11.10;;
24631;SDS011;59977;48.782;9.190;2024-03-22T01:26:39;17.48;;;10.38;;
24631;SDS011;59977;48.782;9.190;2024-03-22T01:29:05;17.25;;;11.55;;
24631;SDS011;59977;48.782;9.190;2024-03-22T01:31:31;18.63;;;10.90;;
24631;SDS011;59977;48.782;9.190;2024-03-22T01:33:56;19.98;;;10.98;;
24631;SDS011;59977;48.782;9.190;2024-03-22T01:36:22;13.98;;;10.15;;
24631;SDS011;59977;48.782;9.190;2024-03-22T01:38:47;20.95;;;10.20;;
24631;SDS011;59977;48.782;9.190;2024-03-22T01:41:13;18.58;;;10.30;;
24631;SDS011;59977;48.782;9.190;2024-03-22T01:43:39;28.85;;;12.57;;
24631;SDS011;59977;48.782;9.190;2024-03-22T01:46:05;21.80;;;12.32;;
24631;SDS011;59977;48.782;9.190;2024-03-22T01:48:33;28.23;;;13.93;;
24631;SDS011;59977;48.782;9.190;2024-03-22T01:50:59;24.88;;;14.13;;
24631;SDS011;59977;48.782;9.190;2024-03-22T01:53:25;26.75;;;13.60;;
24631;SDS011;59977;48.782;9.190;2024-03-22T01:55:51;27.63;;;14.90;;
24631;SDS011;59977;48.782;9.190;2024-03-22T01:58:17;29.38;;;16.65;;
24631;SDS011;59977;48.782;9.190;2024-03-22T02:00:43;25.73;;;15.35;;
24631;SDS011;59977;48.782;9.190;2024-03-22T02:03:09;27.23;;;16.33;;
24631;SDS011;59977;48.782;9.190;2024-03-22T02:05:35;28.67;;;14.30;;
24631;SDS011;59977;48.782;9.190;2024-03-22T02:08:00;27.65;;;15.63;;
24631;SDS011;59977;48.782;9.190;2024-03-22T02:10:26;25.98;;;14.40;;
24631;SDS011;59977;48.782;9.190;2024-03-22T02:12:51;21.52;;;13.70;;
24631;SDS011;59977;48.782;9.190;2024-03-22T02:15:17;25.50;;;15.73;;
24631;SDS011;59977;48.782;9.190;2024-03-22T02:17:43;28.85;;;17.92;;
24631;SDS011;59977;48.782;9.190;2024-03-22T02:20:09;27.75;;;16.25;;
24631;SDS011;59977;48.782;9.190;2024-03-22T02:22:36;29.60;;;16.58;;
24631;SDS011;59977;48.782;9.190;2024-03-22T02:25:02;28.95;;;16.42;;
24631;SDS011;59977;48.782;9.190;2024-03-22T02:27:28;30.30;;;17.15;;
24631;SDS011;59977;48.782;9.190;2024-03-22T02:29:54;28.63;;;16.40;;
24631;SDS011;59977;48.782;9.190;2024-03-22T02:32:20;33.45;;;16.15;;
24631;SDS011;59977;48.782;9.190;2024-03-22T02:34:45;32.72;;;15.73;;
24631;SDS011;59977;48.782;9.190;2024-03-22T02:37:11;29.23;;;16.27;;
24631;SDS011;59977;48.782;9.190;2024-03-22T02:39:36;26.40;;;14.52;;
24631;SDS011;59977;48.782;9.190;2024-03-22T02:42:02;27.42;;;14.43;;
24631;SDS011;59977;48.782;9.190;2024-03-22T02:44:28;19.40;;;12.75;;
24631;SDS011;59977;48.782;9.190;2024-03-22T02:46:54;15.85;;;10.30;;
24631;SDS011;59977;48.782;9.190;2024-03-22T02:49:19;17.98;;;10.23;;
24631;SDS011;59977;48.782;9.190;2024-03-22T02:51:45;21.17;;;10.10;;
24631;SDS011;59977;48.782;9.190;2024-03-22T02:54:10;16.83;;;10.30;;
24631;SDS011;59977;48.782;9.190;2024-03-22T02:56:36;16.92;;;9.60;;
24631;SDS011;59977;48.782;9.190;2024-03-22T02:59:01;16.42;;;10.02;;
24631;SDS011;59977;48.782;9.190;2024-03-22T03:01:27;17.10;;;9.57;;
24631;SDS011;59977;48.782;9.190;2024-03-22T03:03:53;18.65;;;10.23;;
24631;SDS011;59977;48.782;9.190;2024-03-22T03:06:18;19.45;;;10.32;;
24631;SDS011;59977;48.782;9.190;2024-03-22T03:08:45;18.88;;;10.15;;
24631;SDS011;59977;48.782;9.190;2024-03-22T03:11:10;20.00;;;10.40;;
24631;SDS011;59977;48.782;9.190;2024-03-22T03:13:36;16.90;;;9.60;;
24631;SDS011;59977;48.782;9.190;2024-03-22T03:16:02;15.40;;;10.05;;
24631;SDS011;59977;48.782;9.190;2024-03-22T03:18:28;18.60;;;10.07;;
24631;SDS011;59977;48.782;9.190;2024-03-22T03:20:53;19.15;;;11.02;;
24631;SDS011;59977;48.782;9.190;2024-03-22T03:23:19;14.18;;;9.85;;
24631;SDS011;59977;48.782;9.190;2024-03-22T03:25:45;14.70;;;9.75;;
24631;SDS011;59977;48.782;9.190;2024-03-22T03:28:11;18.13;;;10.10;;
24631;SDS011;59977;48.782;9.190;2024-03-22T03:30:38;18.40;;;9.85;;
24631;SDS011;59977;48.782;9.190;2024-03-22T03:33:04;19.75;;;10.35;;
24631;SDS011;59977;48.782;9.190;2024-03-22T03:35:29;19.15;;;10.65;;
24631;SDS011;59977;48.782;9.190;2024-03-22T03:37:55;18.67;;;9.77;;
24631;SDS011;59977;48.782;9.190;2024-03-22T03:40:21;16.95;;;10.10;;
24631;SDS011;59977;48.782;9.190;2024-03-22T03:42:49;14.57;;;10.27;;
24631;SDS011;59977;48.782;9.190;2024-03-22T03:45:17;15.73;;;10.10;;
24631;SDS011;59977;48.782;9.190;2024-03-22T03:47:43;16.50;;;10.40;;
24631;SDS011;59977;48.782;9.190;2024-03-22T03:50:08;14.48;;;9.90;;
24631;SDS011;59977;48.782;9.190;2024-03-22T03:52:34;15.18;;;10.23;;
24631;SDS011;59977;48.782;9.190;2024-03-22T03:55:00;14.85;;;10.18;;
24631;SDS011;59977;48.782;9.190;2024-03-22T03:57:26;19.02;;;9.93;;
24631;SDS011;59977;48.782;9.190;2024-03-22T03:59:51;18.17;;;9.93;;
24631;SDS011;59977;48.782;9.190;2024-03-22T04:02:17;15.27;;;9.80;;
24631;SDS011;59977;48.782;9.190;2024-03-22T04:04:42;14.10;;;9.30;;
24631;SDS011;59977;48.782;9.190;2024-03-22T04:07:08;14.30;;;9.70;;
24631;SDS011;59977;48.782;9.190;2024-03-22T04:09:34;16.10;;;9.90;;
24631;SDS011;59977;48.782;9.190;2024-03-22T04:11:59;14.73;;;10.10;;
24631;SDS011;59977;48.782;9.190;2024-03-22T04:14:25;15.48;;;9.82;;
24631;SDS011;59977;48.782;9.190;2024-03-22T04:16:51;17.98;;;10.32;;
24631;SDS011;59977;48.782;9.190;2024-03-22T04:19:19;16.65;;;9.48;;
24631;SDS011;59977;48.782;9.190;2024-03-22T04:21:45;13.88;;;9.23;;
24631;SDS011;59977;48.782;9.190;2024-03-22T04:24:11;12.82;;;8.70;;
24631;SDS011;59977;48.782;9.190;2024-03-22T04:26:36;15.43;;;9.27;;
24631;SDS011;59977;48.782;9.190;2024-03-22T04:29:02;16.85;;;9.55;;
24631;SDS011;59977;48.782;9.190;2024-03-22T04:31:27;14.38;;;8.73;;
24631;SDS011;59977;48.782;9.190;2024-03-22T04:33:53;15.05;;;9.30;;
24631;SDS011;59977;48.782;9.190;2024-03-22T04:36:18;13.75;;;8.77;;
24631;SDS011;59977;48.782;9.190;2024-03-22T04:38:44;13.70;;;9.23;;
24631;SDS011;59977;48.782;9.190;2024-03-22T04:41:10;13.98;;;8.32;;
24631;SDS011;59977;48.782;9.190;2024-03-22T04:43:35;14.98;;;8.52;;
24631;SDS011;59977;48.782;9.190;2024-03-22T04:46:01;14.15;;;8.82;;
24631;SDS011;59977;48.782;9.190;2024-03-22T04:48:26;12.23;;;8.25;;
24631;SDS011;59977;48.782;9.190;2024-03-22T04:50:52;15.20;;;8.50;;
24631;SDS011;59977;48.782;9.190;2024-03-22T04:53:19;14.63;;;8.23;;
24631;SDS011;59977;48.782;9.190;2024-03-22T04:55:49;11.95;;;8.18;;
24631;SDS011;59977;48.782;9.190;2024-03-22T04:58:15;12.20;;;8.02;;
24631;SDS011;59977;48.782;9.190;2024-03-22T05:00:45;14.07;;;8.35;;
24631;SDS011;59977;48.782;9.190;2024-03-22T05:03:13;16.77;;;8.32;;
24631;SDS011;59977;48.782;9.190;2024-03-22T05:05:40;14.13;;;8.82;;
24631;SDS011;59977;48.782;9.190;2024-03-22T05:08:06;11.55;;;7.82;;
24631;SDS011;59977;48.782;9.190;2024-03-22T05:10:33;13.38;;;7.93;;
24631;SDS011;59977;48.782;9.190;2024-03-22T05:12:59;13.13;;;8.02;;
24631;SDS011;59977;48.782;9.190;2024-03-22T05:15:24;13.23;;;7.97;;
24631;SDS011;59977;48.782;9.190;2024-03-22T05:17:51;15.00;;;8.27;;
24631;SDS011;59977;48.782;9.190;2024-03-22T05:20:17;16.30;;;8.85;;
24631;SDS011;59977;48.782;9.190;2024-03-22T05:22:42;21.05;;;7.85;;
24631;SDS011;59977;48.782;9.190;2024-03-22T05:25:08;12.23;;;8.13;;
24631;SDS011;59977;48.782;9.190;2024-03-22T05:27:34;19.27;;;7.95;;
24631;SDS011;59977;48.782;9.190;2024-03-22T05:30:00;12.95;;;7.85;;
24631;SDS011;59977;48.782;9.190;2024-03-22T05:32:26;15.85;;;8.43;;
24631;SDS011;59977;48.782;9.190;2024-03-22T05:34:52;13.30;;;8.73;;
24631;SDS011;59977;48.782;9.190;2024-03-22T05:37:18;17.77;;;8.98;;
24631;SDS011;59977;48.782;9.190;2024-03-22T05:39:44;15.32;;;9.10;;
24631;SDS011;59977;48.782;9.190;2024-03-22T05:42:09;18.80;;;8.88;;
24631;SDS011;59977;48.782;9.190;2024-03-22T05:44:35;17.02;;;7.95;;
24631;SDS011;59977;48.782;9.190;2024-03-22T05:47:00;17.42;;;8.45;;
24631;SDS011;59977;48.782;9.190;2024-03-22T05:49:26;12.75;;;7.40;;
24631;SDS011;59977;48.782;9.190;2024-03-22T05:51:52;14.07;;;7.63;;
24631;SDS011;59977;48.782;9.190;2024-03-22T05:54:18;13.80;;;8.65;;
24631;SDS011;59977;48.782;9.190;2024-03-22T05:56:43;24.15;;;10.02;;
24631;SDS011;59977;48.782;9.190;2024-03-22T05:59:09;15.15;;;9.63;;
24631;SDS011;59977;48.782;9.190;2024-03-22T06:01:35;24.33;;;10.60;;
24631;SDS011;59977;48.782;9.190;2024-03-22T06:04:03;21.67;;;10.45;;
24631;SDS011;59977;48.782;9.190;2024-03-22T06:06:29;16.08;;;9.88;;
24631;SDS011;59977;48.782;9.190;2024-03-22T06:08:55;30.50;;;11.88;;
24631;SDS011;59977;48.782;9.190;2024-03-22T06:11:22;21.20;;;10.85;;
24631;SDS011;59977;48.782;9.190;2024-03-22T06:13:48;23.05;;;12.05;;
24631;SDS011;59977;48.782;9.190;2024-03-22T06:16:14;18.15;;;11.70;;
24631;SDS011;59977;48.782;9.190;2024-03-22T06:18:40;19.15;;;11.00;;
24631;SDS011;59977;48.782;9.190;2024-03-22T06:21:06;18.00;;;11.35;;
24631;SDS011;59977;48.782;9.190;2024-03-22T06:23:32;20.67;;;11.82;;
24631;SDS011;59977;48.782;9.190;2024-03-22T06:25:58;20.92;;;11.00;;
24631;SDS011;59977;48.782;9.190;2024-03-22T06:28:25;20.23;;;12.18;;
24631;SDS011;59977;48.782;9.190;2024-03-22T06:30:52;17.33;;;11.38;;
24631;SDS011;59977;48.782;9.190;2024-03-22T06:33:19;19.45;;;11.82;;
24631;SDS011;59977;48.782;9.190;2024-03-22T06:35:45;23.05;;;11.55;;
24631;SDS011;59977;48.782;9.190;2024-03-22T06:38:11;21.40;;;11.77;;
24631;SDS011;59977;48.782;9.190;2024-03-22T06:40:37;21.42;;;11.82;;
24631;SDS011;59977;48.782;9.190;2024-03-22T06:43:02;27.55;;;12.65;;
24631;SDS011;59977;48.782;9.190;2024-03-22T06:45:28;18.98;;;11.68;;
24631;SDS011;59977;48.782;9.190;2024-03-22T06:47:54;28.42;;;12.88;;
24631;SDS011;59977;48.782;9.190;2024-03-22T06:50:20;18.58;;;12.60;;
24631;SDS011;59977;48.782;9.190;2024-03-22T06:52:52;27.90;;;12.57;;
24631;SDS011;59977;48.782;9.190;2024-03-22T06:55:22;24.05;;;12.43;;
24631;SDS011;59977;48.782;9.190;2024-03-22T06:57:48;28.17;;;12.70;;
24631;SDS011;59977;48.782;9.190;2024-03-22T07:00:15;21.30;;;12.13;;
24631;SDS011;59977;48.782;9.190;2024-03-22T07:02:41;22.08;;;12.88;;
24631;SDS011;59977;48.782;9.190;2024-03-22T07:05:07;24.10;;;12.40;;
24631;SDS011;59977;48.782;9.190;2024-03-22T07:07:37;25.33;;;12.85;;
24631;SDS011;59977;48.782;9.190;2024-03-22T07:10:04;21.83;;;12.30;;
24631;SDS011;59977;48.782;9.190;2024-03-22T07:12:33;17.02;;;12.48;;
24631;SDS011;59977;48.782;9.190;2024-03-22T07:14:59;22.17;;;13.10;;
24631;SDS011;59977;48.782;9.190;2024-03-22T07:17:26;18.80;;;12.18;;
24631;SDS011;59977;48.782;9.190;2024-03-22T07:19:52;20.38;;;12.10;;
24631;SDS011;59977;48.782;9.190;2024-03-22T07:22:18;24.65;;;11.98;;
24631;SDS011;59977;48.782;9.190;2024-03-22T07:24:44;23.67;;;12.68;;
24631;SDS011;59977;48.782;9.190;2024-03-22T07:27:11;23.20;;;12.77;;
24631;SDS011;59977;48.782;9.190;2024-03-22T07:29:37;21.50;;;12.15;;
24631;SDS011;59977;48.782;9.190;2024-03-22T07:32:02;22.90;;;13.30;;
24631;SDS011;59977;48.782;9.190;2024-03-22T07:34:28;20.85;;;13.18;;
24631;SDS011;59977;48.782;9.190;2024-03-22T07:36:54;21.92;;;11.32;;
24631;SDS011;59977;48.782;9.190;2024-03-22T07:39:20;20.10;;;11.50;;
24631;SDS011;59977;48.782;9.190;2024-03-22T07:41:45;20.95;;;11.52;;
24631;SDS011;59977;48.782;9.190;2024-03-22T07:44:11;17.70;;;12.25;;
24631;SDS011;59977;48.782;9.190;2024-03-22T07:46:36;19.95;;;11.93;;
24631;SDS011;59977;48.782;9.190;2024-03-22T07:49:02;17.73;;;10.93;;
24631;SDS011;59977;48.782;9.190;2024-03-22T07:51:29;19.17;;;11.18;;
24631;SDS011;59977;48.782;9.190;2024-03-22T07:53:55;23.27;;;10.90;;
24631;SDS011;59977;48.782;9.190;2024-03-22T07:56:20;20.35;;;11.25;;
24631;SDS011;59977;48.782;9.190;2024-03-22T07:58:46;20.55;;;10.95;;
24631;SDS011;59977;48.782;9.190;2024-03-22T08:01:12;23.30;;;10.45;;
24631;SDS011;59977;48.782;9.190;2024-03-22T08:03:43;19.23;;;11.00;;
24631;SDS011;59977;48.782;9.190;2024-03-22T08:06:08;20.40;;;10.80;;
24631;SDS011;59977;48.782;9.190;2024-03-22T08:08:34;15.43;;;10.13;;
24631;SDS011;59977;48.782;9.190;2024-03-22T08:10:59;21.95;;;11.23;;
24631;SDS011;59977;48.782;9.190;2024-03-22T08:13:26;21.10;;;11.10;;
24631;SDS011;59977;48.782;9.190;2024-03-22T08:15:55;18.55;;;10.45;;
24631;SDS011;59977;48.782;9.190;2024-03-22T08:18:20;23.80;;;11.32;;
24631;SDS011;59977;48.782;9.190;2024-03-22T08:20:46;21.08;;;10.70;;
24631;SDS011;59977;48.782;9.190;2024-03-22T08:23:12;24.08;;;11.02;;
24631;SDS011;59977;48.782;9.190;2024-03-22T08:25:37;21.58;;;11.00;;
24631;SDS011;59977;48.782;9.190;2024-03-22T08:28:03;15.80;;;9.95;;
24631;SDS011;59977;48.782;9.190;2024-03-22T08:30:29;19.40;;;10.10;;
24631;SDS011;59977;48.782;9.190;2024-03-22T08:32:55;16.17;;;9.35;;
24631;SDS011;59977;48.782;9.190;2024-03-22T08:35:20;24.13;;;9.60;;
24631;SDS011;59977;48.782;9.190;2024-03-22T08:37:47;19.17;;;10.73;;
24631;SDS011;59977;48.782;9.190;2024-03-22T08:40:13;15.95;;;9.75;;
24631;SDS011;59977;48.782;9.190;2024-03-22T08:42:39;17.00;;;9.98;;
24631;SDS011;59977;48.782;9.190;2024-03-22T08:45:05;11.43;;;6.43;;
24631;SDS011;59977;48.782;9.190;2024-03-22T08:47:31;19.70;;;9.73;;
24631;SDS011;59977;48.782;9.190;2024-03-22T08:49:58;25.42;;;9.73;;
24631;SDS011;59977;48.782;9.190;2024-03-22T08:52:24;20.52;;;9.82;;
24631;SDS011;59977;48.782;9.190;2024-03-22T08:54:50;17.20;;;9.27;;
24631;SDS011;59977;48.782;9.190;2024-03-22T08:57:17;24.75;;;10.95;;
24631;SDS011;59977;48.782;9.190;2024-03-22T08:59:42;21.55;;;10.70;;
24631;SDS011;59977;48.782;9.190;2024-03-22T09:02:08;23.08;;;11.20;;
24631;SDS011;59977;48.782;9.190;2024-03-22T09:04:34;22.90;;;10.40;;
24631;SDS011;59977;48.782;9.190;2024-03-22T09:07:00;20.05;;;9.55;;
24631;SDS011;59977;48.782;9.190;2024-03-22T09:09:27;21.65;;;10.15;;
24631;SDS011;59977;48.782;9.190;2024-03-22T09:11:55;18.15;;;10.10;;
24631;SDS011;59977;48.782;9.190;2024-03-22T09:14:20;17.35;;;8.95;;
24631;SDS011;59977;48.782;9.190;2024-03-22T09:16:47;26.05;;;10.57;;
24631;SDS011;59977;48.782;9.190;2024-03-22T09:19:13;29.23;;;11.23;;
24631;SDS011;59977;48.782;9.190;2024-03-22T09:21:40;23.30;;;9.63;;
24631;SDS011;59977;48.782;9.190;2024-03-22T09:24:07;26.50;;;9.68;;
24631;SDS011;59977;48.782;9.190;2024-03-22T09:26:32;23.27;;;9.98;;
24631;SDS011;59977;48.782;9.190;2024-03-22T09:28:58;17.58;;;9.15;;
24631;SDS011;59977;48.782;9.190;2024-03-22T09:31:24;20.98;;;8.85;;
24631;SDS011;59977;48.782;9.190;2024-03-22T09:33:49;23.13;;;10.38;;
24631;SDS011;59977;48.782;9.190;2024-03-22T09:36:18;16.88;;;8.48;;
24631;SDS011;59977;48.782;9.190;2024-03-22T09:38:47;17.88;;;9.25;;
24631;SDS011;59977;48.782;9.190;2024-03-22T09:41:14;17.77;;;8.52;;
24631;SDS011;59977;48.782;9.190;2024-03-22T09:43:40;18.15;;;9.45;;
24631;SDS011;59977;48.782;9.190;2024-03-22T09:46:09;14.70;;;7.25;;
24631;SDS011;59977;48.782;9.190;2024-03-22T09:48:38;19.73;;;7.40;;
24631;SDS011;59977;48.782;9.190;2024-03-22T09:51:05;26.45;;;6.07;;
24631;SDS011;59977;48.782;9.190;2024-03-22T09:53:32;16.42;;;6.75;;
24631;SDS011;59977;48.782;9.190;2024-03-22T09:55:58;13.15;;;6.68;;
24631;SDS011;59977;48.782;9.190;2024-03-22T09:58:26;20.23;;;6.65;;
24631;SDS011;59977;48.782;9.190;2024-03-22T10:00:52;15.13;;;5.72;;
24631;SDS011;59977;48.782;9.190;2024-03-22T10:03:26;16.38;;;7.28;;
24631;SDS011;59977;48.782;9.190;2024-03-22T10:05:52;10.23;;;5.20;;
24631;SDS011;59977;48.782;9.190;2024-03-22T10:08:18;9.25;;;4.07;;
24631;SDS011;59977;48.782;9.190;2024-03-22T10:10:43;9.00;;;3.78;;
24631;SDS011;59977;48.782;9.190;2024-03-22T10:13:09;7.13;;;3.65;;
24631;SDS011;59977;48.782;9.190;2024-03-22T10:15:34;9.77;;;3.67;;
24631;SDS011;59977;48.782;9.190;2024-03-22T10:18:00;8.75;;;3.60;;
24631;SDS011;59977;48.782;9.190;2024-03-22T10:20:26;9.57;;;3.50;;
24631;SDS011;59977;48.782;9.190;2024-03-22T10:22:58;8.45;;;3.05;;
24631;SDS011;59977;48.782;9.190;2024-03-22T10:25:25;7.85;;;3.63;;
24631;SDS011;59977;48.782;9.190;2024-03-22T10:27:53;8.00;;;3.20;;
24631;SDS011;59977;48.782;9.190;2024-03-22T10:30:19;10.07;;;3.15;;
24631;SDS011;59977;48.782;9.190;2024-03-22T10:32:46;7.13;;;3.72;;
24631;SDS011;59977;48.782;9.190;2024-03-22T10:35:14;11.10;;;4.18;;
24631;SDS011;59977;48.782;9.190;2024-03-22T10:37:41;12.77;;;3.78;;
24631;SDS011;59977;48.782;9.190;2024-03-22T10:40:07;7.35;;;3.78;;
24631;SDS011;59977;48.782;9.190;2024-03-22T10:42:38;6.78;;;3.63;;
24631;SDS011;59977;48.782;9.190;2024-03-22T10:45:27;8.57;;;3.72;;
24631;SDS011;59977;48.782;9.190;2024-03-22T10:47:55;7.28;;;3.50;;
24631;SDS011;59977;48.782;9.190;2024-03-22T10:50:21;7.65;;;3.58;;
24631;SDS011;59977;48.782;9.190;2024-03-22T10:52:56;10.40;;;3.03;;
24631;SDS011;59977;48.782;9.190;2024-03-22T10:55:27;7.30;;;3.53;;
24631;SDS011;59977;48.782;9.190;2024-03-22T10:57:58;9.65;;;3.40;;
24631;SDS011;59977;48.782;9.190;2024-03-22T11:00:27;7.03;;;4.00;;
24631;SDS011;59977;48.782;9.190;2024-03-22T11:02:57;10.90;;;3.40;;
24631;SDS011;59977;48.782;9.190;2024-03-22T11:05:25;11.70;;;3.50;;
24631;SDS011;59977;48.782;9.190;2024-03-22T11:08:00;6.40;;;3.50;;
24631;SDS011;59977;48.782;9.190;2024-03-22T11:10:29;7.32;;;3.83;;
24631;SDS011;59977;48.782;9.190;2024-03-22T11:12:55;6.55;;;2.97;;
24631;SDS011;59977;48.782;9.190;2024-03-22T11:15:25;7.47;;;3.00;;
24631;SDS011;59977;48.782;9.190;2024-03-22T11:17:53;13.20;;;4.10;;
24631;SDS011;59977;48.782;9.190;2024-03-22T11:20:18;10.18;;;3.25;;
24631;SDS011;59977;48.782;9.190;2024-03-22T11:22:44;5.50;;;3.20;;
24631;SDS011;59977;48.782;9.190;2024-03-22T11:25:10;8.18;;;3.60;;
24631;SDS011;59977;48.782;9.190;2024-03-22T11:27:35;10.32;;;3.75;;
24631;SDS011;59977;48.782;9.190;2024-03-22T11:30:01;7.18;;;3.40;;
24631;SDS011;59977;48.782;9.190;2024-03-22T11:32:28;11.23;;;3.90;;
24631;SDS011;59977;48.782;9.190;2024-03-22T11:34:56;4.93;;;2.95;;
24631;SDS011;59977;48.782;9.190;2024-03-22T11:37:23;11.35;;;3.65;;
24631;SDS011;59977;48.782;9.190;2024-03-22T11:39:51;10.10;;;3.38;;
24631;SDS011;59977;48.782;9.190;2024-03-22T11:42:16;8.52;;;3.80;;
24631;SDS011;59977;48.782;9.190;2024-03-22T11:44:42;10.82;;;3.42;;
24631;SDS011;59977;48.782;9.190;2024-03-22T11:47:08;6.80;;;3.80;;
24631;SDS011;59977;48.782;9.190;2024-03-22T11:49:34;6.70;;;3.38;;
24631;SDS011;59977;48.782;9.190;2024-03-22T11:52:03;14.63;;;3.80;;
24631;SDS011;59977;48.782;9.190;2024-03-22T11:54:29;9.93;;;4.10;;
24631;SDS011;59977;48.782;9.190;2024-03-22T11:56:56;11.55;;;3.47;;
24631;SDS011;59977;48.782;9.190;2024-03-22T11:59:21;10.23;;;3.60;;
24631;SDS011;59977;48.782;9.190;2024-03-22T12:01:47;9.93;;;3.47;;
24631;SDS011;59977;48.782;9.190;2024-03-22T12:04:13;8.77;;;3.50;;
24631;SDS011;59977;48.782;9.190;2024-03-22T12:06:42;5.78;;;3.25;;
24631;SDS011;59977;48.782;9.190;2024-03-22T12:09:09;6.97;;;3.65;;
24631;SDS011;59977;48.782;9.190;2024-03-22T12:11:40;6.07;;;3.10;;
24631;SDS011;59977;48.782;9.190;2024-03-22T12:14:06;7.65;;;3.15;;
24631;SDS011;59977;48.782;9.190;2024-03-22T12:16:32;5.07;;;2.90;;
24631;SDS011;59977;48.782;9.190;2024-03-22T12:18:58;7.65;;;2.88;;
24631;SDS011;59977;48.782;9.190;2024-03-22T12:21:23;7.13;;;2.80;;
24631;SDS011;59977;48.782;9.190;2024-03-22T12:23:49;7.07;;;2.60;;
24631;SDS011;59977;48.782;9.190;2024-03-22T12:26:15;5.70;;;2.80;;
24631;SDS011;59977;48.782;9.190;2024-03-22T12:28:41;6.82;;;2.47;;
24631;SDS011;59977;48.782;9.190;2024-03-22T12:31:08;9.77;;;2.45;;
24631;SDS011;59977;48.782;9.190;2024-03-22T12:33:35;7.32;;;2.45;;
24631;SDS011;59977;48.782;9.190;2024-03-22T12:36:01;6.75;;;3.10;;
24631;SDS011;59977;48.782;9.190;2024-03-22T12:38:26;6.90;;;3.10;;
24631;SDS011;59977;48.782;9.190;2024-03-22T12:40:52;9.00;;;3.00;;
24631;SDS011;59977;48.782;9.190;2024-03-22T12:43:21;5.78;;;2.90;;
24631;SDS011;59977;48.782;9.190;2024-03-22T12:45:47;8.63;;;2.90;;
24631;SDS011;59977;48.782;9.190;2024-03-22T12:48:12;6.88;;;2.10;;
24631;SDS011;59977;48.782;9.190;2024-03-22T12:50:41;7.60;;;2.53;;
24631;SDS011;59977;48.782;9.190;2024-03-22T12:53:12;8.82;;;2.65;;
24631;SDS011;59977;48.782;9.190;2024-03-22T12:55:37;8.23;;;3.22;;
24631;SDS011;59977;48.782;9.190;2024-03-22T12:58:03;10.55;;;4.07;;
24631;SDS011;59977;48.782;9.190;2024-03-22T13:00:29;6.07;;;2.50;;
24631;SDS011;59977;48.782;9.190;2024-03-22T13:02:58;5.00;;;2.00;;
24631;SDS011;59977;48.782;9.190;2024-03-22T13:05:25;11.65;;;2.83;;
24631;SDS011;59977;48.782;9.190;2024-03-22T13:07:52;5.65;;;2.83;;
24631;SDS011;59977;48.782;9.190;2024-03-22T13:10:18;11.02;;;2.55;;
24631;SDS011;59977;48.782;9.190;2024-03-22T13:12:44;5.03;;;2.00;;
24631;SDS011;59977;48.782;9.190;2024-03-22T13:15:09;5.03;;;1.80;;
24631;SDS011;59977;48.782;9.190;2024-03-22T13:17:37;4.82;;;1.77;;
24631;SDS011;59977;48.782;9.190;2024-03-22T13:20:05;4.18;;;2.58;;
24631;SDS011;59977;48.782;9.190;2024-03-22T13:22:35;4.20;;;1.92;;
24631;SDS011;59977;48.782;9.190;2024-03-22T13:25:02;5.22;;;1.98;;
24631;SDS011;59977;48.782;9.190;2024-03-22T13:27:31;5.00;;;1.80;;
24631;SDS011;59977;48.782;9.190;2024-03-22T13:29:58;4.22;;;1.90;;
24631;SDS011;59977;48.782;9.190;2024-03-22T13:32:23;6.40;;;2.28;;
24631;SDS011;59977;48.782;9.190;2024-03-22T13:34:49;6.75;;;2.28;;
24631;SDS011;59977;48.782;9.190;2024-03-22T13:37:15;9.80;;;2.65;;
24631;SDS011;59977;48.782;9.190;2024-03-22T13:39:41;8.98;;;2.85;;
24631;SDS011;59977;48.782;9.190;2024-03-22T13:42:07;12.07;;;2.45;;
24631;SDS011;59977;48.782;9.190;2024-03-22T13:44:34;6.40;;;2.45;;
24631;SDS011;59977;48.782;9.190;2024-03-22T13:46:59;6.28;;;2.70;;
24631;SDS011;59977;48.782;9.190;2024-03-22T13:49:25;8.20;;;3.10;;
24631;SDS011;59977;48.782;9.190;2024-03-22T13:51:51;5.57;;;2.53;;
24631;SDS011;59977;48.782;9.190;2024-03-22T13:54:16;8.05;;;2.70;;
24631;SDS011;59977;48.782;9.190;2024-03-22T13:56:42;4.25;;;2.58;;
24631;SDS011;59977;48.782;9.190;2024-03-22T13:59:08;8.98;;;2.70;;
24631;SDS011;59977;48.782;9.190;2024-03-22T14:01:34;11.85;;;2.92;;
24631;SDS011;59977;48.782;9.190;2024-03-22T14:04:05;6.32;;;2.92;;
24631;SDS011;59977;48.782;9.190;2024-03-22T14:06:31;9.00;;;2.92;;
24631;SDS011;59977;48.782;9.190;2024-03-22T14:09:01;8.43;;;3.10;;
24631;SDS011;59977;48.782;9.190;2024-03-22T14:11:27;5.47;;;2.90;;
24631;SDS011;59977;48.782;9.190;2024-03-22T14:13:53;9.88;;;3.03;;
24631;SDS011;59977;48.782;9.190;2024-03-22T14:16:19;9.18;;;3.60;;
24631;SDS011;59977;48.782;9.190;2024-03-22T14:18:46;9.02;;;3.78;;
24631;SDS011;59977;48.782;9.190;2024-03-22T14:21:13;6.72;;;3.28;;
24631;SDS011;59977;48.782;9.190;2024-03-22T14:23:43;7.25;;;3.67;;
24631;SDS011;59977;48.782;9.190;2024-03-22T14:26:13;8.73;;;3.50;;